createdAt,value
2018-03-30T15:31:52.207Z,10.54
2018-03-30T15:34:18.463Z,10.25
2018-03-30T15:36:55.615Z,10.03
2018-03-30T15:39:21.832Z,9.80
2018-03-30T15:41:50.919Z,9.63
2018-03-30T15:44:17.227Z,9.49
2018-03-30T15:46:43.490Z,9.35
2018-03-30T15:49:09.818Z,9.32
2018-03-30T15:51:36.068Z,9.30
2018-03-30T15:54:01.996Z,9.28
2018-03-30T15:56:29.078Z,9.26
2018-03-30T15:58:55.257Z,9.23
2018-03-30T16:01:21.480Z,9.23
2018-03-30T16:03:47.735Z,9.19
2018-03-30T16:06:13.898Z,9.12
2018-03-30T16:08:40.116Z,9.10
2018-03-30T16:11:19.171Z,9.08
2018-03-30T16:13:45.345Z,9.06
2018-03-30T16:16:11.554Z,9.06
2018-03-30T16:18:49.636Z,9.03
2018-03-30T16:21:15.575Z,8.98
2018-03-30T16:23:41.473Z,8.97
2018-03-30T16:26:07.504Z,8.95
2018-03-30T16:28:33.433Z,8.94
2018-03-30T16:30:59.351Z,8.94
2018-03-30T16:33:25.247Z,8.94
2018-03-30T16:35:51.149Z,8.95
2018-03-30T16:38:17.082Z,8.98
2018-03-30T16:40:43.016Z,8.95
2018-03-30T16:43:08.876Z,8.90
2018-03-30T16:45:34.734Z,8.89
2018-03-30T16:48:00.634Z,8.89
2018-03-30T16:50:26.588Z,8.90
2018-03-30T16:52:52.459Z,8.86
2018-03-30T16:55:18.435Z,8.82
2018-03-30T16:57:44.311Z,8.82
2018-03-30T17:00:10.252Z,8.81
2018-03-30T17:02:36.126Z,8.81
2018-03-30T17:05:02.431Z,8.80
2018-03-30T17:07:28.310Z,8.79
2018-03-30T17:09:54.218Z,8.79
2018-03-30T17:12:20.210Z,8.79
2018-03-30T17:14:46.073Z,8.77
2018-03-30T17:17:11.946Z,8.75
2018-03-30T17:19:37.812Z,8.74
2018-03-30T17:22:03.776Z,8.74
2018-03-30T17:24:29.599Z,8.72
2018-03-30T17:26:55.487Z,8.71
2018-03-30T17:29:21.370Z,8.68
2018-03-30T17:31:47.313Z,8.67
2018-03-30T17:34:13.252Z,8.64
2018-03-30T17:36:39.125Z,8.62
2018-03-30T17:39:04.978Z,8.62
2018-03-30T17:41:30.920Z,8.62
2018-03-30T17:43:56.808Z,8.62
2018-03-30T17:46:22.668Z,8.60
2018-03-30T17:48:48.584Z,8.57
2018-03-30T17:51:14.569Z,8.56
2018-03-30T17:53:40.452Z,8.56
2018-03-30T17:56:06.390Z,8.53
2018-03-30T17:58:32.347Z,8.51
2018-03-30T18:00:58.362Z,8.49
2018-03-30T18:03:24.318Z,8.47
2018-03-30T18:05:50.277Z,8.47
2018-03-30T18:08:16.254Z,8.47
2018-03-30T18:10:42.237Z,8.47
2018-03-30T18:13:08.164Z,8.42
2018-03-30T18:15:34.090Z,8.41
2018-03-30T18:18:00.046Z,8.44
2018-03-30T18:20:26.056Z,8.45
2018-03-30T18:22:51.981Z,8.45
2018-03-30T18:25:17.892Z,8.42
2018-03-30T18:27:43.818Z,8.34
2018-03-30T18:30:09.746Z,8.23
2018-03-30T18:32:35.665Z,8.17
2018-03-30T18:35:01.804Z,8.10
2018-03-30T18:37:27.753Z,8.02
2018-03-30T18:39:53.705Z,7.98
2018-03-30T18:42:19.651Z,7.95
2018-03-30T18:44:45.586Z,7.90
2018-03-30T18:47:11.471Z,7.89
2018-03-30T18:49:37.423Z,7.87
2018-03-30T18:52:03.365Z,7.85
2018-03-30T18:54:29.288Z,7.81
2018-03-30T18:56:55.176Z,7.78
2018-03-30T18:59:21.194Z,7.78
2018-03-30T19:01:47.117Z,7.78
2018-03-30T19:04:13.144Z,7.76
2018-03-30T19:06:39.090Z,7.75
2018-03-30T19:09:04.979Z,7.74
2018-03-30T19:11:30.973Z,7.75
2018-03-30T19:13:56.921Z,7.74
2018-03-30T19:16:22.861Z,7.74
2018-03-30T19:18:48.766Z,7.74
2018-03-30T19:21:14.716Z,7.75
2018-03-30T19:23:40.625Z,7.76
2018-03-30T19:26:06.586Z,7.76
2018-03-30T19:28:32.487Z,7.73
2018-03-30T19:30:58.446Z,7.72
2018-03-30T19:33:24.422Z,7.70
2018-03-30T19:35:50.340Z,7.69
2018-03-30T19:38:16.250Z,7.68
2018-03-30T19:40:42.352Z,7.67
2018-03-30T19:43:08.286Z,7.66
2018-03-30T19:45:34.198Z,7.64
2018-03-30T19:48:00.155Z,7.65
2018-03-30T19:50:26.116Z,7.63
2018-03-30T19:52:52.035Z,7.59
2018-03-30T19:55:17.973Z,7.56
2018-03-30T19:57:43.866Z,7.51
2018-03-30T20:00:09.853Z,7.42
2018-03-30T20:02:35.782Z,7.34
2018-03-30T20:05:01.733Z,7.28
2018-03-30T20:07:27.644Z,7.24
2018-03-30T20:09:53.634Z,7.19
2018-03-30T20:12:19.504Z,7.16
2018-03-30T20:14:45.409Z,7.14
2018-03-30T20:17:11.344Z,7.09
2018-03-30T20:19:37.248Z,7.09
2018-03-30T20:22:03.211Z,7.02
2018-03-30T20:24:29.143Z,6.95
2018-03-30T20:26:55.065Z,6.90
2018-03-30T20:29:21.064Z,6.85
2018-03-30T20:31:46.983Z,6.83
2018-03-30T20:34:12.933Z,6.83
2018-03-30T20:36:38.886Z,6.84
2018-03-30T20:39:04.799Z,6.85
2018-03-30T20:41:30.742Z,6.85
2018-03-30T20:43:56.696Z,6.88
2018-03-30T20:46:22.618Z,6.85
2018-03-30T20:48:48.545Z,6.87
2018-03-30T20:51:14.499Z,6.91
2018-03-30T20:53:40.439Z,6.88
2018-03-30T20:56:06.339Z,6.84
2018-03-30T20:58:32.264Z,6.84
2018-03-30T21:00:58.219Z,6.81
2018-03-30T21:03:24.186Z,6.81
2018-03-30T21:05:50.134Z,6.76
2018-03-30T21:08:16.080Z,6.72
2018-03-30T21:10:42.043Z,6.65
2018-03-30T21:13:07.945Z,6.59
2018-03-30T21:15:33.986Z,6.55
2018-03-30T21:17:59.913Z,6.49
2018-03-30T21:20:25.862Z,6.44
2018-03-30T21:22:51.749Z,6.38
2018-03-30T21:25:17.773Z,6.34
2018-03-30T21:27:43.710Z,6.30
2018-03-30T21:30:09.719Z,6.24
2018-03-30T21:32:35.628Z,6.21
2018-03-30T21:35:01.613Z,6.20
2018-03-30T21:37:27.526Z,6.16
2018-03-30T21:39:53.439Z,6.12
2018-03-30T21:42:19.439Z,6.11
2018-03-30T21:44:45.378Z,6.12
2018-03-30T21:47:11.326Z,6.15
2018-03-30T21:49:37.266Z,6.16
2018-03-30T21:52:03.236Z,6.18
2018-03-30T21:54:29.113Z,6.20
2018-03-30T21:56:55.008Z,6.22
2018-03-30T21:59:20.965Z,6.23
2018-03-30T22:01:46.908Z,6.24
2018-03-30T22:04:12.820Z,6.27
2018-03-30T22:06:38.728Z,6.25
2018-03-30T22:09:04.622Z,6.24
2018-03-30T22:11:30.633Z,6.21
2018-03-30T22:13:56.518Z,6.23
2018-03-30T22:16:22.438Z,6.24
2018-03-30T22:18:48.360Z,6.22
2018-03-30T22:21:14.290Z,6.16
2018-03-30T22:23:40.176Z,6.09
2018-03-30T22:26:06.101Z,6.03
2018-03-30T22:28:32.055Z,5.98
2018-03-30T22:30:58.020Z,5.95
2018-03-30T22:33:24.012Z,5.88
2018-03-30T22:35:49.990Z,5.83
2018-03-30T22:38:15.884Z,5.77
2018-03-30T22:40:41.849Z,5.70
2018-03-30T22:43:07.759Z,5.66
2018-03-30T22:45:33.699Z,5.61
2018-03-30T22:47:59.642Z,5.58
2018-03-30T22:50:25.598Z,5.55
2018-03-30T22:52:51.496Z,5.56
2018-03-30T22:55:17.459Z,5.62
2018-03-30T22:57:43.363Z,5.65
2018-03-30T23:00:09.262Z,5.68
2018-03-30T23:02:35.223Z,5.70
2018-03-30T23:05:01.190Z,5.66
2018-03-30T23:07:27.085Z,5.63
2018-03-30T23:09:53.033Z,5.59
2018-03-30T23:12:18.994Z,5.54
2018-03-30T23:14:44.925Z,5.49
2018-03-30T23:17:10.866Z,5.43
2018-03-30T23:19:36.855Z,5.34
2018-03-30T23:22:02.819Z,5.25
2018-03-30T23:24:28.709Z,5.16
2018-03-30T23:26:54.609Z,5.09
2018-03-30T23:29:20.518Z,5.02
2018-03-30T23:31:46.479Z,4.95
2018-03-30T23:34:12.493Z,4.93
2018-03-30T23:36:38.396Z,4.89
2018-03-30T23:39:04.410Z,4.83
2018-03-30T23:41:30.407Z,4.77
2018-03-30T23:43:56.331Z,4.73
2018-03-30T23:46:22.302Z,4.76
2018-03-30T23:48:48.183Z,4.76
2018-03-30T23:51:14.179Z,4.73
2018-03-30T23:53:40.092Z,4.71
2018-03-30T23:56:06.002Z,4.67
2018-03-30T23:58:31.932Z,4.64
